Time;durP1;ratioP1;P1;durP2;ratioP2;P2;SDS_P1;SDS_P2;PMS_P1;PMS_P2;Temp;Humidity;BMP_temperature;BMP_pressure;BME280_temperature;BME280_humidity;BME280_pressure;Samples;Min_cycle;Max_cycle;Signal;HPM_P1;HPM_P2
2021/05/19 00:04:54;;;;;;;;;;;;;;;;;;4221401;34;20034;-96
2021/05/19 00:08:58;;;;;;;;;;;;;;;;;;4280936;33;20012;-96
2021/05/19 00:11:58;;;;;;;;;;;;;;;;;;4299213;33;19957;-96
2021/05/19 00:15:05;;;;;;;;;;;;;;;;;;4295922;33;19991;-96
2021/05/19 00:20:49;;;;;;;;;;;;;;;;;;4296754;33;19967;-96
2021/05/19 00:31:41;;;;;;;;;;;;;;;;;;4222467;33;20399;-95
2021/05/19 00:38:28;;;;;;;;;;;;;;;;;;4211748;34;20588;-96
2021/05/19 00:42:06;;;;;;;;;;;;;;;;;;;;;
2021/05/19 00:44:43;;;;;;;;;;;;;;;;;;4304328;33;19960;-95
2021/05/19 00:47:42;;;;;;;;;;;;;;;;;;4287044;33;20368;-96
2021/05/19 00:50:33;;;;;;;;;;;;;;;;;;4292537;33;20368;-96
2021/05/19 00:53:33;;;;;;;;;;;;;;;;;;4290290;33;19965;-96
2021/05/19 00:56:25;;;;;;;;;;;;;;;;;;4311301;33;19957;-96
2021/05/19 00:59:47;;;;;;;;;;;;;;;;;;4293270;33;19996;-95
2021/05/19 01:02:39;;;;;;;;;;;;;;;;;;4291017;33;20661;-95
2021/05/19 01:05:47;;;;;;;;;;;;;;;;;;4289357;33;19960;-95
2021/05/19 01:12:01;;;;;;;;;;;;;;;;;;4301466;33;19957;-96
2021/05/19 01:15:19;;;;;;;;;;;;;;;;;;4298663;33;19999;-96
2021/05/19 01:18:40;;;;;;;;;;;;;;;;;;4258809;33;20021;-95
2021/05/19 01:24:49;;;;;;;;;;;;;;;;;;4302662;33;19949;-97
2021/05/19 01:28:04;;;;;;;;;;;;;;;;;;4302868;33;19972;-95
2021/05/19 01:31:26;;;;;;;;;;;;;;;;;;;;;
2021/05/19 01:34:15;;;;;;;;;;;;;;;;;;4310905;33;19965;-96
2021/05/19 01:37:35;;;;;;;;;;;;;;;;;;4294998;33;20024;-96
2021/05/19 01:43:51;;;;;;;;;;;;;;;;;;4308237;33;19991;-95
2021/05/19 01:46:40;;;;;;;;;;;;;;;;;;4319846;33;19968;-94
2021/05/19 01:49:17;;;;;;;;;;;;;;;;;;4284393;33;19957;-96
2021/05/19 01:52:23;;;;;;;;;;;;;;;;;;4292250;33;19965;-95
2021/05/19 01:56:04;;;;;;;;;;;;;;;;;;4292206;33;19961;-96
2021/05/19 01:59:35;;;;;;;;;;;;;;;;;;4265750;33;19965;-96
2021/05/19 02:02:32;;;;;;;;;;;;;;;;;;;;;
2021/05/19 02:05:33;;;;;;;;;;;;;;;;;;4255429;33;19965;-96
2021/05/19 02:19:12;;;;;;;;;;;;;;;;;;;;;
2021/05/19 02:30:10;;;;;;;;;;;;;;;;;;4132576;34;19983;-95
2021/05/19 02:33:26;;;;;;;;;;;;;;;;;;4125499;34;19971;-95
2021/05/19 02:47:35;;;;;;;;;;;;;;;;;;4176351;34;20003;-95
2021/05/19 02:51:18;;;;;;;;;;;;;;;;;;;;;
2021/05/19 02:54:28;;;;;;;;;;;;;;;;;;4188697;34;19972;-96
2021/05/19 02:58:02;;;;;;;;;;;;;;;;;;4212528;33;19959;-96
2021/05/19 03:04:26;;;;;;;;;;;;;;;;;;4233468;33;20023;-96
2021/05/19 03:08:43;;;;;;;;;;;;;;;;;;;;;
2021/05/19 03:12:14;;;;;;;;;;;;;;;;;;4256883;33;19990;-96
2021/05/19 03:16:14;;;;;;;;;;;;;;;;;;4179057;34;20022;-96
2021/05/19 03:27:06;;;;;;;;;;;;;;;;;;4169414;34;19983;-95
2021/05/19 03:33:31;;;;;;;;;;;;;;;;;;4179774;34;19991;-96
2021/05/19 03:36:40;;;;;;;;;;;;;;;;;;4176184;34;19965;-96
2021/05/19 03:59:03;;;;;;;;;;;;;;;;;;4150924;34;20003;-96
2021/05/19 04:02:17;;;;;;;;;;;;;;;;;;4435005;31;20478;-84
2021/05/19 04:04:49;;;;;;;;;;;;;;;;;;4435816;32;20037;-83
2021/05/19 04:07:17;;;;;;;;;;;;;;;;;;4427665;32;20295;-82
2021/05/19 04:09:49;;;;;;;;;;;;;;;;;;4433683;32;20001;-81
2021/05/19 04:12:19;;;;;;;;;;;;;;;;;;4435896;32;20491;-83
2021/05/19 04:14:50;;;;;;;;;;;;;;;;;;4424511;32;20016;-84
2021/05/19 04:17:21;;;;;;;;;;;;;;;;;;4422358;32;20123;-82
2021/05/19 04:19:52;;;;;;;;;;;;;;;;;;4422206;32;19949;-82
2021/05/19 04:22:23;;;;;;;;;;;;;;;;;;4414780;32;20028;-81
2021/05/19 04:24:55;;;;;;;;;;;;;;;;;;4422968;32;20346;-84
2021/05/19 04:27:25;;;;;;;;;;;;;;;;;;4434070;32;19949;-85
2021/05/19 04:29:56;;;;;;;;;;;;;;;;;;4440388;32;19994;-85
2021/05/19 04:32:27;;;;;;;;;;;;;;;;;;4427112;32;19972;-85
2021/05/19 04:35:13;;;;;;;;;;;;;;;;;;4434476;32;19998;-85
2021/05/19 04:37:43;;;;;;;;;;;;;;;;;;4434848;32;20437;-83
2021/05/19 04:40:14;;;;;;;;;;;;;;;;;;4447219;32;20366;-85
2021/05/19 04:42:44;;;;;;;;;;;;;;;;;;4435023;32;19954;-83
2021/05/19 04:45:15;;;;;;;;;;;;;;;;;;4438483;32;20403;-86
2021/05/19 04:47:46;;;;;;;;;;;;;;;;;;4430179;32;19953;-86
2021/05/19 04:50:17;;;;;;;;;;;;;;;;;;4439138;32;20386;-83
2021/05/19 04:52:45;;;;;;;;;;;;;;;;;;4423694;32;19958;-82
2021/05/19 04:55:17;;;;;;;;;;;;;;;;;;4423907;32;20680;-85
2021/05/19 04:57:45;;;;;;;;;;;;;;;;;;4440738;32;20384;-85
2021/05/19 05:00:16;;;;;;;;;;;;;;;;;;4423061;32;19961;-85
2021/05/19 05:02:44;;;;;;;;;;;;;;;;;;4442485;32;20388;-83
2021/05/19 05:05:15;;;;;;;;;;;;;;;;;;4421401;32;20076;-85
2021/05/19 05:07:45;;;;;;;;;;;;;;;;;;4439403;32;19965;-84
2021/05/19 05:10:16;;;;;;;;;;;;;;;;;;4431390;32;19961;-84
2021/05/19 05:12:49;;;;;;;;;;;;;;;;;;4424730;32;20503;-85
2021/05/19 05:15:18;;;;;;;;;;;;;;;;;;4423923;32;19998;-85
2021/05/19 05:17:50;;;;;;;;;;;;;;;;;;4419260;32;20011;-86
2021/05/19 05:20:22;;;;;;;;;;;;;;;;;;4407318;32;19991;-85
2021/05/19 05:22:53;;;;;;;;;;;;;;;;;;4406217;32;19950;-85
2021/05/19 05:25:24;;;;;;;;;;;;;;;;;;4403919;32;19968;-83
2021/05/19 05:27:54;;;;;;;;;;;;;;;;;;4428345;32;20013;-85
2021/05/19 05:30:25;;;;;;;;;;;;;;;;;;4430406;32;19967;-85
2021/05/19 05:32:55;;;;;;;;;;;;;;;;;;4411847;32;19988;-85
2021/05/19 05:35:26;;;;;;;;;;;;;;;;;;4431100;32;20006;-82
2021/05/19 05:37:57;;;;;;;;;;;;;;;;;;4433925;32;19971;-84
2021/05/19 05:40:28;;;;;;;;;;;;;;;;;;4416043;32;19969;-85
2021/05/19 05:42:58;;;;;;;;;;;;;;;;;;4411625;32;20369;-86
2021/05/19 05:45:27;;;;;;;;;;;;;;;;;;4408667;32;19953;-84
2021/05/19 05:47:57;;;;;;;;;;;;;;;;;;4401251;32;20331;-86
2021/05/19 05:50:28;;;;;;;;;;;;;;;;;;4423883;32;19957;-84
2021/05/19 05:52:59;;;;;;;;;;;;;;;;;;4415111;32;19972;-83
2021/05/19 05:55:29;;;;;;;;;;;;;;;;;;4412243;32;19965;-85
2021/05/19 05:58:00;;;;;;;;;;;;;;;;;;4424919;32;20013;-84
2021/05/19 06:00:28;;;;;;;;;;;;;;;;;;4410243;32;20373;-85
2021/05/19 06:02:59;;;;;;;;;;;;;;;;;;4406987;32;19988;-85
2021/05/19 06:05:33;;;;;;;;;;;;;;;;;;4408035;32;20032;-85
2021/05/19 06:08:05;;;;;;;;;;;;;;;;;;4409851;32;20499;-85
2021/05/19 06:10:35;;;;;;;;;;;;;;;;;;4404129;32;20029;-83
2021/05/19 06:13:06;;;;;;;;;;;;;;;;;;4412171;32;20052;-85
2021/05/19 06:15:37;;;;;;;;;;;;;;;;;;4401622;32;19957;-86
2021/05/19 06:18:08;;;;;;;;;;;;;;;;;;4397058;32;20461;-85
2021/05/19 06:20:38;;;;;;;;;;;;;;;;;;4400408;32;19966;-87
2021/05/19 06:23:09;;;;;;;;;;;;;;;;;;4391822;32;19950;-85
2021/05/19 06:25:37;;;;;;;;;;;;;;;;;;4417910;32;20315;-86
2021/05/19 06:28:07;;;;;;;;;;;;;;;;;;4411941;32;20288;-84
2021/05/19 06:30:38;;;;;;;;;;;;;;;;;;4410048;32;20016;-85
2021/05/19 06:33:09;;;;;;;;;;;;;;;;;;4390321;32;20010;-84
2021/05/19 06:35:41;;;;;;;;;;;;;;;;;;4398644;32;19972;-85
2021/05/19 06:38:11;;;;;;;;;;;;;;;;;;4404454;32;20031;-85
2021/05/19 06:40:43;;;;;;;;;;;;;;;;;;4406767;32;19958;-84
2021/05/19 06:43:13;;;;;;;;;;;;;;;;;;4401364;32;19958;-84
2021/05/19 06:45:44;;;;;;;;;;;;;;;;;;4396239;32;20711;-85
2021/05/19 06:48:13;;;;;;;;;;;;;;;;;;4397333;32;20021;-84
2021/05/19 06:50:45;;;;;;;;;;;;;;;;;;4397983;32;20028;-85
2021/05/19 06:53:14;;;;;;;;;;;;;;;;;;4406767;32;19962;-84
2021/05/19 06:55:50;;;;;;;;;;;;;;;;;;4402538;32;19985;-85
2021/05/19 06:58:21;;;;;;;;;;;;;;;;;;4397289;32;20040;-85
2021/05/19 07:00:53;;;;;;;;;;;;;;;;;;4402378;32;19968;-85
2021/05/19 07:03:24;;;;;;;;;;;;;;;;;;4404989;32;19997;-85
2021/05/19 07:05:55;;;;;;;;;;;;;;;;;;4393973;32;19990;-84
2021/05/19 07:08:23;;;;;;;;;;;;;;;;;;4396204;32;20018;-84
2021/05/19 07:10:54;;;;;;;;;;;;;;;;;;4406360;32;19957;-84
2021/05/19 07:13:28;;;;;;;;;;;;;;;;;;4391923;32;20002;-84
2021/05/19 07:16:01;;;;;;;;;;;;;;;;;;4390881;32;19954;-84
2021/05/19 07:18:31;;;;;;;;;;;;;;;;;;4402235;32;20427;-84
2021/05/19 07:21:00;;;;;;;;;;;;;;;;;;4389421;32;20000;-84
2021/05/19 07:23:30;;;;;;;;;;;;;;;;;;4387648;32;20013;-84
2021/05/19 07:26:05;;;;;;;;;;;;;;;;;;4389801;32;20017;-84
2021/05/19 07:28:35;;;;;;;;;;;;;;;;;;4407433;32;19968;-84
2021/05/19 07:31:06;;;;;;;;;;;;;;;;;;4403570;32;19978;-83
2021/05/19 07:33:37;;;;;;;;;;;;;;;;;;4406123;32;20307;-84
2021/05/19 07:36:08;;;;;;;;;;;;;;;;;;4401115;32;19972;-83
2021/05/19 07:38:38;;;;;;;;;;;;;;;;;;4394637;32;19961;-81
2021/05/19 07:41:09;;;;;;;;;;;;;;;;;;4397884;32;19969;-83
2021/05/19 07:43:39;;;;;;;;;;;;;;;;;;4400804;32;20582;-86
2021/05/19 07:46:11;;;;;;;;;;;;;;;;;;4390469;32;19954;-84
2021/05/19 07:48:40;;;;;;;;;;;;;;;;;;4388715;32;20032;-83
2021/05/19 07:51:09;;;;;;;;;;;;;;;;;;4394257;32;20355;-86
2021/05/19 07:53:38;;;;;;;;;;;;;;;;;;4395640;32;20394;-84
2021/05/19 07:58:41;;;;;;;;;;;;;;;;;;4395700;32;20409;-81
2021/05/19 08:03:59;;;;;;;;;;;;;;;;;;4423906;32;19962;-82
2021/05/19 08:06:29;;;;;;;;;;;;;;;;;;4412984;32;20301;-84
2021/05/19 08:08:56;;;;;;;;;;;;;;;;;;4425447;32;20394;-80
2021/05/19 08:11:26;;;;;;;;;;;;;;;;;;4424256;32;20046;-82
2021/05/19 08:13:56;;;;;;;;;;;;;;;;;;4420582;32;20566;-81
2021/05/19 08:16:26;;;;;;;;;;;;;;;;;;4429164;32;19979;-81
2021/05/19 08:18:55;;;;;;;;;;;;;;;;;;4414730;32;20414;-82
2021/05/19 08:21:26;;;;;;;;;;;;;;;;;;4417539;32;19965;-81
2021/05/19 08:23:57;;;;;;;;;;;;;;;;;;4432117;32;20602;-81
2021/05/19 08:26:28;;;;;;;;;;;;;;;;;;4429744;32;20043;-80
2021/05/19 08:28:56;;;;;;;;;;;;;;;;;;4431249;32;19945;-82
2021/05/19 08:31:24;;;;;;;;;;;;;;;;;;4429200;32;20319;-81
2021/05/19 08:34:12;;;;;;;;;;;;;;;;;;4428166;32;20059;-82
2021/05/19 08:36:42;;;;;;;;;;;;;;;;;;4422079;32;20383;-82
2021/05/19 08:39:15;;;;;;;;;;;;;;;;;;4420298;32;20650;-83
2021/05/19 08:41:46;;;;;;;;;;;;;;;;;;4429803;32;20010;-80
2021/05/19 08:44:17;;;;;;;;;;;;;;;;;;4430388;32;19984;-81
2021/05/19 08:46:47;;;;;;;;;;;;;;;;;;4431156;32;20027;-83
2021/05/19 08:49:18;;;;;;;;;;;;;;;;;;4432833;32;20022;-82
2021/05/19 08:51:49;;;;;;;;;;;;;;;;;;4422873;32;20373;-83
2021/05/19 08:54:20;;;;;;;;;;;;;;;;;;4418445;32;19972;-81
2021/05/19 08:56:51;;;;;;;;;;;;;;;;;;4429469;32;20032;-81
2021/05/19 08:59:22;;;;;;;;;;;;;;;;;;4437515;32;20044;-80
2021/05/19 09:01:52;;;;;;;;;;;;;;;;;;4430488;32;20096;-79
2021/05/19 09:04:24;;;;;;;;;;;;;;;;;;4433457;32;19962;-82
2021/05/19 09:06:55;;;;;;;;;;;;;;;;;;4429973;32;19984;-81
2021/05/19 09:09:26;;;;;;;;;;;;;;;;;;4433545;32;19973;-81
2021/05/19 09:11:56;;;;;;;;;;;;;;;;;;4427872;32;20018;-81
2021/05/19 09:14:27;;;;;;;;;;;;;;;;;;4408753;32;20035;-80
2021/05/19 09:16:58;;;;;;;;;;;;;;;;;;4428370;32;19953;-81
2021/05/19 09:19:29;;;;;;;;;;;;;;;;;;4429290;32;20426;-81
2021/05/19 09:22:00;;;;;;;;;;;;;;;;;;4427802;32;19942;-82
2021/05/19 09:24:31;;;;;;;;;;;;;;;;;;4426639;32;19965;-81
2021/05/19 09:27:01;;;;;;;;;;;;;;;;;;4432993;32;19953;-80
2021/05/19 09:29:32;;;;;;;;;;;;;;;;;;4428262;32;19993;-83
2021/05/19 09:32:02;;;;;;;;;;;;;;;;;;4415300;32;20286;-82
2021/05/19 09:34:38;;;;;;;;;;;;;;;;;;4416918;32;20003;-81
2021/05/19 09:37:08;;;;;;;;;;;;;;;;;;4427186;32;19969;-83
2021/05/19 09:39:39;;;;;;;;;;;;;;;;;;4425725;32;20284;-84
2021/05/19 09:42:09;;;;;;;;;;;;;;;;;;4434043;32;19967;-82
2021/05/19 09:44:43;;;;;;;;;;;;;;;;;;4416656;32;19953;-81
2021/05/19 09:47:14;;;;;;;;;;;;;;;;;;4426951;32;19993;-82
2021/05/19 09:49:45;;;;;;;;;;;;;;;;;;4415060;32;19957;-83
2021/05/19 09:52:20;;;;;;;;;;;;;;;;;;4427369;32;20365;-82
2021/05/19 09:54:51;;;;;;;;;;;;;;;;;;4428335;32;19969;-85
2021/05/19 09:57:24;;;;;;;;;;;;;;;;;;4423965;32;20046;-83
2021/05/19 09:59:59;;;;;;;;;;;;;;;;;;4414912;32;20242;-83
2021/05/19 10:02:32;;;;;;;;;;;;;;;;;;4426130;32;20048;-84
2021/05/19 10:05:10;;;;;;;;;;;;;;;;;;4423768;32;20016;-83
2021/05/19 10:07:41;;;;;;;;;;;;;;;;;;4425399;32;20017;-83
2021/05/19 10:10:12;;;;;;;;;;;;;;;;;;4428281;32;19969;-83
2021/05/19 10:12:44;;;;;;;;;;;;;;;;;;4435573;32;19997;-80
2021/05/19 10:15:14;;;;;;;;;;;;;;;;;;4411391;32;20081;-81
2021/05/19 10:17:46;;;;;;;;;;;;;;;;;;4432273;32;19976;-81
2021/05/19 10:20:16;;;;;;;;;;;;;;;;;;4428204;32;20011;-82
2021/05/19 10:22:48;;;;;;;;;;;;;;;;;;4413968;32;20298;-80
2021/05/19 10:25:20;;;;;;;;;;;;;;;;;;4425769;32;19950;-81
2021/05/19 10:27:51;;;;;;;;;;;;;;;;;;4428337;32;20313;-82
2021/05/19 10:30:23;;;;;;;;;;;;;;;;;;4417332;32;20025;-82
2021/05/19 10:32:54;;;;;;;;;;;;;;;;;;4428442;32;20012;-80
2021/05/19 10:35:25;;;;;;;;;;;;;;;;;;4423369;32;19955;-83
2021/05/19 10:37:56;;;;;;;;;;;;;;;;;;4424263;32;19964;-84
2021/05/19 10:40:29;;;;;;;;;;;;;;;;;;4429813;32;19961;-83
2021/05/19 10:43:00;;;;;;;;;;;;;;;;;;4425039;32;19957;-83
2021/05/19 10:45:31;;;;;;;;;;;;;;;;;;4411720;32;19998;-84
2021/05/19 10:48:02;;;;;;;;;;;;;;;;;;4428485;32;20011;-82
2021/05/19 10:50:38;;;;;;;;;;;;;;;;;;4409216;32;20018;-81
2021/05/19 10:58:52;;;;;;;;;;;;;;;;;;4427041;32;20391;-83
2021/05/19 11:01:20;;;;;;;;;;;;;;;;;;4411685;32;20000;-83
2021/05/19 11:03:51;;;;;;;;;;;;;;;;;;4415896;32;19962;-81
2021/05/19 11:06:21;;;;;;;;;;;;;;;;;;4405708;32;19986;-81
2021/05/19 11:08:56;;;;;;;;;;;;;;;;;;4404853;32;20195;-82
2021/05/19 11:11:33;;;;;;;;;;;;;;;;;;4416744;32;20046;-82
2021/05/19 11:16:44;;;;;;;;;;;;;;;;;;4411512;32;20015;-84
2021/05/19 11:19:22;;;;;;;;;;;;;;;;;;4409556;32;20267;-82
2021/05/19 11:21:52;;;;;;;;;;;;;;;;;;4405580;32;20409;-83
2021/05/19 11:24:26;;;;;;;;;;;;;;;;;;4407732;32;20017;-81
2021/05/19 11:26:57;;;;;;;;;;;;;;;;;;4412988;32;19992;-83
2021/05/19 11:29:28;;;;;;;;;;;;;;;;;;4400546;32;19978;-85
2021/05/19 11:32:00;;;;;;;;;;;;;;;;;;4410149;32;20013;-81
2021/05/19 11:34:30;;;;;;;;;;;;;;;;;;4411229;32;20023;-84
2021/05/19 11:37:01;;;;;;;;;;;;;;;;;;4398463;32;20013;-84
2021/05/19 11:39:36;;;;;;;;;;;;;;;;;;4402215;32;19977;-83
2021/05/19 11:42:27;;;;;;;;;;;;;;;;;;4392169;32;20258;-83
2021/05/19 11:44:59;;;;;;;;;;;;;;;;;;4407361;32;19950;-85
2021/05/19 11:47:29;;;;;;;;;;;;;;;;;;4402698;32;19984;-82
2021/05/19 11:50:01;;;;;;;;;;;;;;;;;;4404466;32;20013;-83
2021/05/19 11:52:32;;;;;;;;;;;;;;;;;;4391610;32;19962;-82
2021/05/19 11:55:03;;;;;;;;;;;;;;;;;;4415729;32;19958;-84
2021/05/19 11:57:33;;;;;;;;;;;;;;;;;;4419651;32;20039;-81
2021/05/19 12:00:05;;;;;;;;;;;;;;;;;;4413937;32;20557;-82
2021/05/19 12:02:41;;;;;;;;;;;;;;;;;;4429256;32;19958;-83
2021/05/19 12:05:10;;;;;;;;;;;;;;;;;;4428655;32;20326;-81
2021/05/19 12:07:41;;;;;;;;;;;;;;;;;;4426826;32;20037;-85
2021/05/19 12:10:12;;;;;;;;;;;;;;;;;;4413732;32;19981;-81
2021/05/19 12:12:43;;;;;;;;;;;;;;;;;;4427193;32;19973;-82
2021/05/19 12:15:13;;;;;;;;;;;;;;;;;;4426319;32;19985;-82
2021/05/19 12:17:42;;;;;;;;;;;;;;;;;;4422182;32;20559;-82
2021/05/19 12:20:13;;;;;;;;;;;;;;;;;;4413954;32;20048;-81
2021/05/19 12:22:42;;;;;;;;;;;;;;;;;;4432361;32;19968;-84
2021/05/19 12:25:12;;;;;;;;;;;;;;;;;;4431133;32;20019;-83
2021/05/19 12:27:43;;;;;;;;;;;;;;;;;;4421164;32;19968;-81
2021/05/19 12:30:11;;;;;;;;;;;;;;;;;;4435836;32;19958;-82
2021/05/19 12:32:44;;;;;;;;;;;;;;;;;;4417431;32;19965;-83
2021/05/19 12:35:16;;;;;;;;;;;;;;;;;;4417417;32;20025;-82
2021/05/19 12:37:47;;;;;;;;;;;;;;;;;;4421862;32;20001;-80
2021/05/19 12:40:19;;;;;;;;;;;;;;;;;;4421548;32;19968;-82
2021/05/19 12:42:47;;;;;;;;;;;;;;;;;;4440594;32;19976;-83
2021/05/19 12:45:18;;;;;;;;;;;;;;;;;;4439161;32;20333;-80
2021/05/19 12:47:49;;;;;;;;;;;;;;;;;;4416391;32;19995;-82
2021/05/19 12:50:18;;;;;;;;;;;;;;;;;;4403943;32;19950;-82
2021/05/19 12:52:49;;;;;;;;;;;;;;;;;;4434789;32;19957;-81
2021/05/19 12:55:19;;;;;;;;;;;;;;;;;;4431051;32;19972;-84
2021/05/19 12:57:48;;;;;;;;;;;;;;;;;;4435188;32;19950;-83
2021/05/19 13:00:19;;;;;;;;;;;;;;;;;;4408535;32;19960;-81
2021/05/19 13:02:50;;;;;;;;;;;;;;;;;;4431388;32;19965;-81
2021/05/19 13:05:21;;;;;;;;;;;;;;;;;;4415784;32;19996;-83
2021/05/19 13:07:52;;;;;;;;;;;;;;;;;;4424056;32;19994;-83
2021/05/19 13:10:36;;;;;;;;;;;;;;;;;;4435130;32;20264;-84
2021/05/19 13:13:22;;;;;;;;;;;;;;;;;;4428776;32;20502;-81
2021/05/19 13:15:57;;;;;;;;;;;;;;;;;;4428293;32;19987;-82
2021/05/19 13:18:46;;;;;;;;;;;;;;;;;;4417290;32;19995;-83
2021/05/19 13:21:26;;;;;;;;;;;;;;;;;;4409045;32;19984;-84
2021/05/19 13:23:57;;;;;;;;;;;;;;;;;;4432557;32;19953;-83
2021/05/19 13:26:27;;;;;;;;;;;;;;;;;;4415383;32;20331;-81
2021/05/19 13:28:59;;;;;;;;;;;;;;;;;;4419247;32;20013;-82
2021/05/19 13:31:32;;;;;;;;;;;;;;;;;;4414522;32;20385;-84
2021/05/19 13:36:45;;;;;;;;;;;;;;;;;;4424413;32;20401;-82
2021/05/19 13:39:17;;;;;;;;;;;;;;;;;;4425620;32;20480;-84
2021/05/19 13:41:45;;;;;;;;;;;;;;;;;;4401227;32;20629;-84
2021/05/19 13:44:16;;;;;;;;;;;;;;;;;;4421323;32;19999;-82
2021/05/19 13:46:45;;;;;;;;;;;;;;;;;;4411030;32;20043;-81
2021/05/19 13:51:49;;;;;;;;;;;;;;;;;;4413867;32;19960;-85
2021/05/19 13:54:20;;;;;;;;;;;;;;;;;;4411341;32;20011;-82
2021/05/19 13:56:49;;;;;;;;;;;;;;;;;;4425516;32;20023;-82
2021/05/19 13:59:22;;;;;;;;;;;;;;;;;;4426224;32;19946;-87
2021/05/19 14:01:54;;;;;;;;;;;;;;;;;;4413351;32;20433;-82
2021/05/19 14:04:25;;;;;;;;;;;;;;;;;;4415843;32;20033;-81
2021/05/19 14:06:53;;;;;;;;;;;;;;;;;;4420817;32;19992;-82
2021/05/19 14:09:26;;;;;;;;;;;;;;;;;;4410828;32;20329;-84
2021/05/19 14:12:04;;;;;;;;;;;;;;;;;;4423213;32;19962;-82
2021/05/19 14:28:08;;;;;;;;;;;;;;;;;;4416394;32;20011;-82
2021/05/19 14:30:39;;;;;;;;;;;;;;;;;;4415482;32;19958;-83
2021/05/19 14:33:10;;;;;;;;;;;;;;;;;;4412935;32;20031;-82
2021/05/19 15:01:26;;;;;;;;;;;;;;;;;;4420338;32;19997;-83
2021/05/19 15:03:57;;;;;;;;;;;;;;;;;;4411027;32;20061;-80
2021/05/19 15:06:29;;;;;;;;;;;;;;;;;;4420175;32;20549;-82
2021/05/19 15:09:00;;;;;;;;;;;;;;;;;;4413313;32;19984;-82
2021/05/19 15:11:30;;;;;;;;;;;;;;;;;;4421114;32;19954;-82
2021/05/19 15:14:01;;;;;;;;;;;;;;;;;;4406642;32;19977;-82
2021/05/19 15:16:32;;;;;;;;;;;;;;;;;;4415576;32;19966;-83
2021/05/19 15:19:02;;;;;;;;;;;;;;;;;;4407183;32;20058;-82
2021/05/19 15:21:33;;;;;;;;;;;;;;;;;;4420098;32;19949;-83
2021/05/19 15:24:01;;;;;;;;;;;;;;;;;;4417145;32;19987;-81
2021/05/19 15:26:32;;;;;;;;;;;;;;;;;;4426706;32;20011;-81
2021/05/19 15:29:03;;;;;;;;;;;;;;;;;;4421523;32;20323;-83
2021/05/19 15:31:34;;;;;;;;;;;;;;;;;;4419018;32;19989;-82
2021/05/19 15:34:15;;;;;;;;;;;;;;;;;;4420754;32;20078;-81
2021/05/19 15:36:46;;;;;;;;;;;;;;;;;;4419500;32;20012;-81
2021/05/19 15:39:17;;;;;;;;;;;;;;;;;;4423124;32;19954;-81
2021/05/19 15:41:48;;;;;;;;;;;;;;;;;;4409856;32;19958;-82
2021/05/19 15:44:19;;;;;;;;;;;;;;;;;;4422185;32;19969;-83
2021/05/19 15:46:50;;;;;;;;;;;;;;;;;;4427632;32;20005;-83
2021/05/19 15:49:25;;;;;;;;;;;;;;;;;;4439235;32;19989;-82
2021/05/19 15:51:56;;;;;;;;;;;;;;;;;;4426684;32;19958;-81
2021/05/19 15:54:27;;;;;;;;;;;;;;;;;;4413835;32;19997;-84
2021/05/19 15:56:58;;;;;;;;;;;;;;;;;;4412042;32;20006;-83
2021/05/19 15:59:29;;;;;;;;;;;;;;;;;;4412258;32;20348;-84
2021/05/19 16:02:00;;;;;;;;;;;;;;;;;;4424971;32;19986;-83
2021/05/19 16:04:32;;;;;;;;;;;;;;;;;;4422884;32;20038;-82
2021/05/19 16:07:03;;;;;;;;;;;;;;;;;;4414458;32;20500;-85
2021/05/19 16:09:34;;;;;;;;;;;;;;;;;;4427881;32;19954;-84
2021/05/19 16:12:05;;;;;;;;;;;;;;;;;;4401214;32;20107;-83
2021/05/19 16:14:36;;;;;;;;;;;;;;;;;;4409063;32;20047;-82
2021/05/19 16:17:06;;;;;;;;;;;;;;;;;;4408968;32;19997;-83
2021/05/19 16:19:38;;;;;;;;;;;;;;;;;;4414807;32;20395;-83
2021/05/19 16:22:09;;;;;;;;;;;;;;;;;;4399303;32;19987;-82
2021/05/19 16:24:40;;;;;;;;;;;;;;;;;;4408376;32;19976;-84
2021/05/19 16:27:14;;;;;;;;;;;;;;;;;;4425108;32;19976;-83
2021/05/19 16:33:02;;;;;;;;;;;;;;;;;;4421526;32;20022;-84
2021/05/19 16:35:59;;;;;;;;;;;;;;;;;;4420742;32;20253;-85
2021/05/19 16:38:30;;;;;;;;;;;;;;;;;;4412686;32;19957;-85
2021/05/19 16:41:00;;;;;;;;;;;;;;;;;;4407620;32;20012;-84
2021/05/19 16:43:34;;;;;;;;;;;;;;;;;;4428658;32;19957;-83
2021/05/19 16:46:23;;;;;;;;;;;;;;;;;;4419839;32;20021;-84
2021/05/19 16:49:04;;;;;;;;;;;;;;;;;;4434282;32;19980;-84
2021/05/19 16:51:32;;;;;;;;;;;;;;;;;;4425915;32;19989;-83
2021/05/19 16:54:04;;;;;;;;;;;;;;;;;;4430649;32;19972;-82
2021/05/19 16:56:34;;;;;;;;;;;;;;;;;;4434063;32;20013;-84
2021/05/19 16:59:06;;;;;;;;;;;;;;;;;;4427658;32;19990;-83
2021/05/19 17:04:50;;;;;;;;;;;;;;;;;;4413241;32;20005;-85
2021/05/19 17:07:18;;;;;;;;;;;;;;;;;;4436186;32;20285;-83
2021/05/19 17:09:50;;;;;;;;;;;;;;;;;;4420323;32;20014;-83
2021/05/19 17:12:21;;;;;;;;;;;;;;;;;;4418928;32;19946;-83
2021/05/19 17:14:50;;;;;;;;;;;;;;;;;;4418250;32;20324;-84
2021/05/19 17:17:20;;;;;;;;;;;;;;;;;;4429606;32;19983;-84
2021/05/19 17:19:51;;;;;;;;;;;;;;;;;;4415647;32;20701;-85
2021/05/19 17:22:22;;;;;;;;;;;;;;;;;;4425795;32;20300;-81
2021/05/19 17:24:53;;;;;;;;;;;;;;;;;;4416597;32;20338;-82
2021/05/19 17:27:22;;;;;;;;;;;;;;;;;;4398233;32;19980;-81
2021/05/19 17:29:54;;;;;;;;;;;;;;;;;;4422800;32;19961;-85
2021/05/19 17:32:25;;;;;;;;;;;;;;;;;;4413052;32;19964;-82
2021/05/19 17:34:56;;;;;;;;;;;;;;;;;;4410180;32;20282;-83
2021/05/19 17:37:27;;;;;;;;;;;;;;;;;;4424152;32;20403;-84
2021/05/19 17:39:57;;;;;;;;;;;;;;;;;;4416104;32;20000;-85
2021/05/19 17:42:28;;;;;;;;;;;;;;;;;;4434606;32;20022;-82
2021/05/19 17:44:58;;;;;;;;;;;;;;;;;;4404210;32;19949;-85
2021/05/19 17:47:29;;;;;;;;;;;;;;;;;;4416494;32;19964;-82
2021/05/19 17:49:59;;;;;;;;;;;;;;;;;;4400694;32;20009;-84
2021/05/19 17:52:30;;;;;;;;;;;;;;;;;;4402710;32;19990;-86
2021/05/19 17:55:01;;;;;;;;;;;;;;;;;;4400154;32;20013;-84
2021/05/19 17:57:32;;;;;;;;;;;;;;;;;;4409438;32;20000;-84
2021/05/19 18:00:00;;;;;;;;;;;;;;;;;;4430971;32;19957;-84
2021/05/19 18:02:30;;;;;;;;;;;;;;;;;;4425585;32;20374;-84
2021/05/19 18:05:03;;;;;;;;;;;;;;;;;;4409333;32;20331;-84
2021/05/19 18:07:34;;;;;;;;;;;;;;;;;;4399726;32;20298;-83
2021/05/19 18:10:05;;;;;;;;;;;;;;;;;;4414080;32;19976;-83
2021/05/19 18:12:34;;;;;;;;;;;;;;;;;;4408579;32;20015;-85
2021/05/19 18:15:03;;;;;;;;;;;;;;;;;;4420413;32;20374;-84
2021/05/19 18:17:34;;;;;;;;;;;;;;;;;;4418447;32;20005;-83
2021/05/19 18:20:04;;;;;;;;;;;;;;;;;;4426990;32;20340;-84
2021/05/19 18:22:33;;;;;;;;;;;;;;;;;;4425067;32;20391;-84
2021/05/19 18:25:01;;;;;;;;;;;;;;;;;;4404859;32;20534;-83
2021/05/19 18:27:32;;;;;;;;;;;;;;;;;;4410847;32;20024;-83
2021/05/19 18:30:08;;;;;;;;;;;;;;;;;;4421577;32;19997;-84
2021/05/19 18:32:43;;;;;;;;;;;;;;;;;;4408222;32;19997;-84
2021/05/19 18:37:49;;;;;;;;;;;;;;;;;;4434252;32;19954;-82
2021/05/19 18:40:20;;;;;;;;;;;;;;;;;;4414949;32;20334;-84
2021/05/19 18:42:50;;;;;;;;;;;;;;;;;;4422897;32;20421;-84
2021/05/19 18:45:24;;;;;;;;;;;;;;;;;;4410881;32;19993;-81
2021/05/19 18:47:55;;;;;;;;;;;;;;;;;;4426619;32;19981;-84
2021/05/19 18:50:27;;;;;;;;;;;;;;;;;;4413580;32;20000;-82
2021/05/19 18:52:57;;;;;;;;;;;;;;;;;;4424820;32;21002;-85
2021/05/19 18:55:30;;;;;;;;;;;;;;;;;;4405469;32;20659;-81
2021/05/19 18:57:58;;;;;;;;;;;;;;;;;;4422811;32;19960;-81
2021/05/19 19:00:30;;;;;;;;;;;;;;;;;;4428878;32;20336;-81
2021/05/19 19:03:01;;;;;;;;;;;;;;;;;;4427267;32;19964;-83
2021/05/19 19:05:32;;;;;;;;;;;;;;;;;;4403403;32;20014;-80
2021/05/19 19:08:03;;;;;;;;;;;;;;;;;;4423130;32;20287;-81
2021/05/19 19:10:34;;;;;;;;;;;;;;;;;;4413614;32;19976;-85
2021/05/19 19:13:05;;;;;;;;;;;;;;;;;;4422314;32;20026;-84
2021/05/19 19:15:37;;;;;;;;;;;;;;;;;;4426613;32;19997;-85
2021/05/19 19:18:08;;;;;;;;;;;;;;;;;;4421721;32;19983;-85
2021/05/19 19:20:39;;;;;;;;;;;;;;;;;;4403340;32;20015;-84
2021/05/19 19:23:09;;;;;;;;;;;;;;;;;;4424813;32;19987;-82
2021/05/19 19:25:40;;;;;;;;;;;;;;;;;;4422994;32;20003;-84
2021/05/19 19:28:11;;;;;;;;;;;;;;;;;;4403318;32;19949;-83
2021/05/19 19:30:42;;;;;;;;;;;;;;;;;;4400957;32;19949;-85
2021/05/19 19:33:12;;;;;;;;;;;;;;;;;;4409893;32;19999;-84
2021/05/19 19:35:43;;;;;;;;;;;;;;;;;;4399773;32;20316;-83
2021/05/19 19:38:14;;;;;;;;;;;;;;;;;;4409945;32;20043;-82
2021/05/19 19:40:46;;;;;;;;;;;;;;;;;;4411622;32;20434;-85
2021/05/19 19:43:17;;;;;;;;;;;;;;;;;;4408624;32;20064;-82
2021/05/19 19:45:48;;;;;;;;;;;;;;;;;;4412141;32;20329;-83
2021/05/19 19:48:26;;;;;;;;;;;;;;;;;;4421973;32;20010;-82
2021/05/19 19:51:00;;;;;;;;;;;;;;;;;;4412593;32;20412;-82
2021/05/19 19:53:31;;;;;;;;;;;;;;;;;;4411619;32;19980;-83
2021/05/19 19:56:01;;;;;;;;;;;;;;;;;;4414886;32;20023;-85
2021/05/19 19:58:32;;;;;;;;;;;;;;;;;;4414931;32;20504;-81
2021/05/19 20:01:07;;;;;;;;;;;;;;;;;;4422180;32;19966;-86
2021/05/19 20:06:08;;;;;;;;;;;;;;;;;;4422569;32;19958;-83
2021/05/19 20:08:39;;;;;;;;;;;;;;;;;;4423169;32;20017;-81
2021/05/19 20:11:09;;;;;;;;;;;;;;;;;;4416654;32;20817;-83
2021/05/19 20:13:46;;;;;;;;;;;;;;;;;;4416027;32;19991;-82
2021/05/19 20:16:17;;;;;;;;;;;;;;;;;;4438987;32;20013;-82
2021/05/19 20:18:50;;;;;;;;;;;;;;;;;;4426860;32;20004;-84
2021/05/19 20:21:23;;;;;;;;;;;;;;;;;;4403332;32;20282;-86
2021/05/19 20:23:58;;;;;;;;;;;;;;;;;;4408472;32;20016;-84
2021/05/19 20:26:29;;;;;;;;;;;;;;;;;;4432719;32;19982;-85
2021/05/19 20:29:00;;;;;;;;;;;;;;;;;;4434334;32;20039;-81